createdAt,value
2022-11-05T00:01:49.683Z,5.00
2022-11-05T00:04:36.178Z,5.00
2022-11-05T00:07:26.090Z,5.00
2022-11-05T00:10:02.254Z,5.00
2022-11-05T00:12:48.642Z,4.90
2022-11-05T00:15:34.612Z,4.80
2022-11-05T00:18:02.083Z,4.70
2022-11-05T00:20:29.531Z,4.80
2022-11-05T00:23:18.779Z,4.80
2022-11-05T00:25:53.793Z,4.90
2022-11-05T00:28:21.230Z,5.00
2022-11-05T00:30:48.698Z,4.90
2022-11-05T00:33:16.184Z,4.90
2022-11-05T00:35:43.676Z,4.80
2022-11-05T00:38:11.140Z,4.70
2022-11-05T00:40:39.258Z,4.60
2022-11-05T00:43:25.186Z,4.50
2022-11-05T00:45:52.711Z,4.50
2022-11-05T00:48:38.480Z,4.50
2022-11-05T00:51:05.999Z,4.40
2022-11-05T00:53:33.360Z,4.10
2022-11-05T00:56:01.435Z,4.20
2022-11-05T00:58:29.670Z,4.10
2022-11-05T01:00:58.489Z,4.30
2022-11-05T01:03:27.805Z,4.50
2022-11-05T01:05:59.138Z,4.80
2022-11-05T01:08:27.908Z,5.00
2022-11-05T01:10:57.118Z,5.10
2022-11-05T01:13:33.429Z,5.20
2022-11-05T01:16:04.992Z,5.20
2022-11-05T01:18:32.452Z,5.20
2022-11-05T01:21:00.116Z,5.30
2022-11-05T01:23:29.121Z,5.30
2022-11-05T01:25:58.913Z,5.30
2022-11-05T01:28:26.492Z,5.30
2022-11-05T01:30:57.630Z,5.30
2022-11-05T01:33:25.571Z,5.30
2022-11-05T01:35:53.883Z,5.40
2022-11-05T01:38:24.454Z,5.40
2022-11-05T01:40:51.599Z,5.40
2022-11-05T01:43:21.207Z,5.50
2022-11-05T01:45:52.776Z,5.50
2022-11-05T01:48:23.378Z,5.50
2022-11-05T01:50:57.236Z,5.50
2022-11-05T01:53:24.863Z,5.50
2022-11-05T01:56:03.620Z,5.60
2022-11-05T01:58:57.522Z,5.40
2022-11-05T02:01:28.403Z,5.20
2022-11-05T02:03:59.396Z,4.90
2022-11-05T02:06:28.260Z,4.80
2022-11-05T02:08:58.714Z,4.60
2022-11-05T02:11:29.500Z,4.40
2022-11-05T02:13:57.198Z,4.50
2022-11-05T02:16:35.628Z,4.70
2022-11-05T02:19:22.093Z,4.90
2022-11-05T02:22:08.281Z,5.00
2022-11-05T02:24:54.307Z,5.10
2022-11-05T02:27:26.572Z,5.20
2022-11-05T02:29:56.976Z,5.30
2022-11-05T02:32:38.339Z,5.40
2022-11-05T02:35:15.741Z,5.50
2022-11-05T02:37:49.789Z,5.50
2022-11-05T02:40:26.592Z,5.50
2022-11-05T02:42:59.118Z,5.40
2022-11-05T02:45:31.377Z,5.40
2022-11-05T02:48:08.428Z,5.50
2022-11-05T02:50:47.439Z,5.50
2022-11-05T02:53:28.119Z,5.50
2022-11-05T02:56:24.770Z,5.50
2022-11-05T02:58:51.948Z,5.50
2022-11-05T03:01:19.662Z,5.50
2022-11-05T03:04:07.788Z,5.40
2022-11-05T03:06:54.066Z,5.40
2022-11-05T03:09:24.247Z,5.40
2022-11-05T03:11:51.881Z,5.40
2022-11-05T03:14:25.196Z,5.50
2022-11-05T03:17:02.049Z,5.50
2022-11-05T03:19:29.750Z,5.50
2022-11-05T03:22:16.136Z,5.50
2022-11-05T03:24:46.881Z,5.60
2022-11-05T03:27:21.064Z,5.60
2022-11-05T03:29:51.770Z,5.70
2022-11-05T03:32:21.307Z,5.70
2022-11-05T03:34:53.512Z,5.70
2022-11-05T03:37:22.599Z,5.70
2022-11-05T03:39:52.943Z,5.70
2022-11-05T03:42:26.319Z,5.70
2022-11-05T03:44:57.250Z,5.70
2022-11-05T03:47:28.541Z,5.70
2022-11-05T03:49:59.219Z,5.80
2022-11-05T03:52:28.789Z,5.80
2022-11-05T03:54:58.864Z,5.80
2022-11-05T03:57:29.740Z,5.80
2022-11-05T03:59:59.800Z,5.80
2022-11-05T04:02:39.106Z,5.90
2022-11-05T04:05:09.563Z,5.90
2022-11-05T04:07:55.849Z,5.70
2022-11-05T04:10:41.785Z,5.70
2022-11-05T04:13:26.789Z,5.70
2022-11-05T04:16:13.485Z,5.60
2022-11-05T04:18:41.199Z,5.60
2022-11-05T04:21:28.667Z,5.70
2022-11-05T04:24:11.407Z,5.70
2022-11-05T04:26:40.483Z,5.80
2022-11-05T04:29:26.269Z,5.80
2022-11-05T04:31:53.442Z,5.80
2022-11-05T04:34:22.521Z,5.90
2022-11-05T04:36:50.466Z,5.90
2022-11-05T04:39:18.451Z,5.90
2022-11-05T04:41:48.261Z,5.90
2022-11-05T04:44:16.478Z,5.70
2022-11-05T04:46:43.992Z,5.50
2022-11-05T04:49:11.150Z,5.30
2022-11-05T04:51:38.731Z,5.30
2022-11-05T04:54:07.006Z,5.20
2022-11-05T04:56:34.589Z,4.90
2022-11-05T04:59:02.104Z,4.90
2022-11-05T05:01:29.799Z,4.90
2022-11-05T05:03:57.149Z,4.90
2022-11-05T05:06:24.583Z,5.10
2022-11-05T05:08:52.211Z,5.30
2022-11-05T05:11:20.831Z,5.40
2022-11-05T05:13:48.938Z,5.50
2022-11-05T05:16:18.937Z,5.30
2022-11-05T05:18:46.564Z,5.00
2022-11-05T05:21:33.080Z,4.50
2022-11-05T05:24:00.569Z,4.30
2022-11-05T05:26:28.318Z,4.40
2022-11-05T05:28:55.735Z,4.50
2022-11-05T05:31:23.403Z,4.70
2022-11-05T05:33:53.449Z,4.60
2022-11-05T05:36:21.421Z,4.60
2022-11-05T05:38:48.475Z,4.50
2022-11-05T05:41:16.041Z,4.60
2022-11-05T05:43:43.702Z,4.60
2022-11-05T05:46:12.195Z,4.90
2022-11-05T05:48:39.701Z,4.80
2022-11-05T05:51:10.977Z,4.60
2022-11-05T05:53:38.540Z,4.60
2022-11-05T05:56:06.558Z,4.60
2022-11-05T05:58:35.298Z,4.40
2022-11-05T06:01:07.353Z,4.20
2022-11-05T06:03:35.031Z,4.10
2022-11-05T06:06:06.651Z,4.10
2022-11-05T06:08:34.402Z,4.30
2022-11-05T06:11:02.754Z,4.40
2022-11-05T06:13:30.356Z,4.70
2022-11-05T06:16:02.620Z,5.00
2022-11-05T06:18:30.955Z,5.20
2022-11-05T06:21:08.817Z,5.40
2022-11-05T06:23:37.030Z,5.50
2022-11-05T06:26:05.717Z,5.60
2022-11-05T06:28:33.978Z,5.70
2022-11-05T06:31:02.169Z,5.70
2022-11-05T06:33:29.579Z,5.80
2022-11-05T06:36:00.478Z,5.90
2022-11-05T06:38:29.629Z,5.90
2022-11-05T06:41:00.991Z,6.10
2022-11-05T06:43:30.908Z,6.20
2022-11-05T06:45:58.368Z,6.30
2022-11-05T06:48:26.004Z,6.30
2022-11-05T06:50:53.582Z,6.30
2022-11-05T06:53:21.425Z,6.40
2022-11-05T06:55:48.995Z,6.20
2022-11-05T06:58:15.962Z,6.00
2022-11-05T07:00:42.732Z,6.00
2022-11-05T07:03:10.966Z,6.00
2022-11-05T07:05:43.582Z,6.10
2022-11-05T07:08:10.872Z,6.10
2022-11-05T07:10:37.654Z,6.20
2022-11-05T07:13:08.129Z,6.50
2022-11-05T07:15:36.370Z,6.50
2022-11-05T07:18:04.118Z,6.50
2022-11-05T07:20:34.170Z,6.60
2022-11-05T07:23:06.143Z,6.60
2022-11-05T07:25:34.303Z,6.70
2022-11-05T07:28:02.377Z,6.70
2022-11-05T07:30:30.271Z,6.80
2022-11-05T07:32:57.853Z,7.00
2022-11-05T07:35:26.127Z,7.00
2022-11-05T07:37:54.557Z,6.90
2022-11-05T07:40:23.191Z,7.00
2022-11-05T07:42:51.993Z,6.80
2022-11-05T07:45:19.792Z,6.70
2022-11-05T07:47:51.861Z,6.70
2022-11-05T07:50:19.713Z,6.50
2022-11-05T07:52:48.472Z,6.50
2022-11-05T07:55:16.436Z,6.40
2022-11-05T07:57:44.607Z,6.30
2022-11-05T08:00:13.617Z,6.20
2022-11-05T08:02:41.665Z,6.20
2022-11-05T08:05:10.319Z,6.20
2022-11-05T08:07:37.726Z,6.30
2022-11-05T08:10:05.156Z,6.50
2022-11-05T08:12:32.963Z,6.60
2022-11-05T08:15:00.122Z,6.70
2022-11-05T08:17:26.919Z,6.80
2022-11-05T08:19:53.656Z,6.80
2022-11-05T08:22:21.100Z,6.90
2022-11-05T08:24:48.744Z,6.90
2022-11-05T08:27:16.312Z,7.10
2022-11-05T08:29:43.899Z,7.20
2022-11-05T08:32:10.769Z,7.20
2022-11-05T08:34:38.117Z,7.30
2022-11-05T08:37:05.553Z,7.30
2022-11-05T08:39:32.945Z,7.30
2022-11-05T08:42:00.383Z,7.40
2022-11-05T08:44:27.734Z,7.30
2022-11-05T08:46:55.763Z,7.10
2022-11-05T08:49:23.113Z,7.10
2022-11-05T08:51:50.827Z,7.20
2022-11-05T08:54:21.229Z,7.30
2022-11-05T08:56:51.779Z,7.40
2022-11-05T08:59:19.354Z,7.50
2022-11-05T09:01:47.204Z,7.50
2022-11-05T09:04:14.839Z,7.50
2022-11-05T09:06:42.330Z,7.40
2022-11-05T09:09:09.826Z,7.40
2022-11-05T09:12:10.096Z,7.30
2022-11-05T09:14:27.604Z,7.20
2022-11-05T09:16:55.057Z,7.10
2022-11-05T09:19:22.171Z,7.20
2022-11-05T09:21:49.745Z,7.30
2022-11-05T09:24:17.355Z,7.30
2022-11-05T09:26:44.716Z,7.30
2022-11-05T09:29:14.530Z,7.40
2022-11-05T09:31:42.464Z,7.40
2022-11-05T09:34:09.828Z,7.50
2022-11-05T09:36:37.304Z,7.40
2022-11-05T09:39:04.297Z,7.40
2022-11-05T09:41:37.101Z,7.60
2022-11-05T09:44:08.108Z,7.70
2022-11-05T09:46:46.748Z,7.80
2022-11-05T09:49:28.071Z,7.70
2022-11-05T09:51:56.539Z,7.70
2022-11-05T09:54:24.920Z,7.70
2022-11-05T09:56:52.736Z,7.80
2022-11-05T09:59:24.590Z,7.70
2022-11-05T10:01:52.880Z,7.80
2022-11-05T10:04:22.451Z,7.80
2022-11-05T10:07:00.784Z,7.90
2022-11-05T10:09:40.144Z,8.00
2022-11-05T10:12:14.056Z,8.10
2022-11-05T10:14:47.341Z,8.00
2022-11-05T10:17:25.691Z,8.10
2022-11-05T10:20:07.828Z,8.10
2022-11-05T10:22:38.835Z,8.20
2022-11-05T10:25:16.123Z,7.90
2022-11-05T10:27:44.683Z,7.70
2022-11-05T10:30:14.575Z,7.60
2022-11-05T10:32:42.845Z,7.50
2022-11-05T10:35:13.203Z,7.60
2022-11-05T10:37:41.385Z,7.60
2022-11-05T10:40:27.235Z,7.80
2022-11-05T10:42:54.673Z,8.00
2022-11-05T10:45:36.700Z,8.20
2022-11-05T10:48:03.736Z,8.30
2022-11-05T10:50:40.097Z,8.50
2022-11-05T10:53:06.977Z,8.60
2022-11-05T10:55:38.603Z,8.70
2022-11-05T10:58:19.359Z,8.80
2022-11-05T11:01:06.913Z,8.70
2022-11-05T11:03:47.689Z,8.60
2022-11-05T11:06:18.522Z,8.60
2022-11-05T11:08:46.208Z,8.70
2022-11-05T11:11:24.409Z,8.60
2022-11-05T11:14:02.606Z,8.60
2022-11-05T11:16:33.713Z,8.40
2022-11-05T11:19:01.256Z,8.30
2022-11-05T11:21:28.959Z,8.30
2022-11-05T11:23:57.112Z,8.20
2022-11-05T11:26:25.652Z,8.10
2022-11-05T11:28:55.380Z,8.10
2022-11-05T11:31:24.410Z,8.10
2022-11-05T11:33:53.453Z,8.00
2022-11-05T11:36:24.683Z,7.90
2022-11-05T11:38:58.558Z,7.90
2022-11-05T11:41:28.309Z,7.90
2022-11-05T11:44:14.361Z,7.90
2022-11-05T11:46:42.037Z,7.80
2022-11-05T11:49:29.303Z,7.70
2022-11-05T11:52:00.372Z,7.60
2022-11-05T11:54:33.147Z,7.50
2022-11-05T11:57:00.579Z,7.40
2022-11-05T11:59:53.957Z,7.50
2022-11-05T12:02:35.176Z,7.50
2022-11-05T12:05:07.033Z,7.50
2022-11-05T12:07:46.038Z,7.60
2022-11-05T12:10:13.357Z,7.70
2022-11-05T12:12:52.622Z,7.80
2022-11-05T12:15:27.713Z,8.00
2022-11-05T12:18:00.893Z,8.10
2022-11-05T12:20:48.368Z,8.20
2022-11-05T12:23:16.366Z,8.30
2022-11-05T12:26:02.861Z,8.20
2022-11-05T12:29:04.844Z,8.20
2022-11-05T12:31:32.989Z,8.20
2022-11-05T12:34:18.960Z,8.20
2022-11-05T12:37:02.524Z,8.10
2022-11-05T12:39:33.045Z,8.20
2022-11-05T12:42:12.956Z,8.20
2022-11-05T12:44:58.696Z,8.20
2022-11-05T12:47:32.253Z,8.10
2022-11-05T12:50:08.208Z,8.00
2022-11-05T12:52:53.961Z,7.90
2022-11-05T12:55:23.113Z,7.70
2022-11-05T12:57:52.760Z,7.70
2022-11-05T13:00:23.368Z,7.60
2022-11-05T13:03:16.802Z,7.60
2022-11-05T13:05:47.610Z,7.70
2022-11-05T13:08:28.425Z,7.70
2022-11-05T13:11:01.731Z,7.80
2022-11-05T13:13:44.351Z,7.90
2022-11-05T13:16:19.981Z,8.00
2022-11-05T13:18:49.580Z,8.10
2022-11-05T13:21:17.980Z,8.20
2022-11-05T13:23:49.228Z,8.20
2022-11-05T13:26:19.688Z,8.20
2022-11-05T13:28:50.645Z,8.20
2022-11-05T13:31:23.354Z,8.10
2022-11-05T13:33:51.544Z,8.10
2022-11-05T13:36:37.141Z,8.00
2022-11-05T13:39:20.291Z,8.00
2022-11-05T13:41:48.430Z,7.90
2022-11-05T13:44:28.696Z,8.00
2022-11-05T13:46:56.307Z,7.90
2022-11-05T13:49:45.274Z,8.00
2022-11-05T13:52:36.297Z,8.10
2022-11-05T13:55:18.856Z,8.20
2022-11-05T13:57:54.449Z,8.20
2022-11-05T14:00:23.824Z,8.20
2022-11-05T14:02:57.565Z,8.10
2022-11-05T14:05:36.060Z,8.10
2022-11-05T14:08:10.814Z,8.10
2022-11-05T14:10:42.407Z,8.10
2022-11-05T14:13:15.705Z,8.10
2022-11-05T14:15:54.503Z,8.10
2022-11-05T14:18:24.636Z,8.10
2022-11-05T14:20:59.818Z,8.20
2022-11-05T14:23:31.113Z,8.10
2022-11-05T14:26:13.026Z,8.20
2022-11-05T14:28:46.116Z,8.20
2022-11-05T14:31:13.053Z,8.20
2022-11-05T14:33:40.392Z,8.10
2022-11-05T14:36:28.713Z,8.00
2022-11-05T14:39:04.097Z,8.00
2022-11-05T14:41:31.823Z,8.00
2022-11-05T14:44:01.797Z,8.00
2022-11-05T14:46:42.095Z,8.00
2022-11-05T14:49:12.996Z,8.00
2022-11-05T14:51:44.555Z,7.80
2022-11-05T14:54:35.349Z,7.70
2022-11-05T14:57:03.391Z,7.60
2022-11-05T14:59:33.342Z,7.50
2022-11-05T15:02:03.632Z,7.50
2022-11-05T15:04:36.413Z,7.30
2022-11-05T15:07:04.154Z,7.10
2022-11-05T15:09:40.846Z,7.10
2022-11-05T15:12:09.511Z,7.10
2022-11-05T15:14:41.151Z,7.10
2022-11-05T15:17:30.221Z,7.10
2022-11-05T15:20:20.440Z,7.10
2022-11-05T15:22:49.120Z,7.00
2022-11-05T15:25:23.565Z,6.90
2022-11-05T15:27:56.070Z,6.90
2022-11-05T15:30:24.227Z,6.90
2022-11-05T15:32:51.889Z,6.90
2022-11-05T15:35:29.222Z,6.70
2022-11-05T15:38:01.809Z,6.60
2022-11-05T15:40:31.679Z,6.60
2022-11-05T15:43:20.262Z,6.60
2022-11-05T15:46:00.086Z,6.70
2022-11-05T15:48:27.193Z,6.60
2022-11-05T15:50:54.190Z,6.60
2022-11-05T15:56:30.152Z,6.60
2022-11-05T15:59:04.966Z,6.60
2022-11-05T16:01:46.479Z,6.60
2022-11-05T16:04:20.161Z,6.50
2022-11-05T16:06:49.207Z,6.50
2022-11-05T16:09:27.044Z,6.50
2022-11-05T16:12:14.738Z,6.60
2022-11-05T16:14:42.609Z,6.60
2022-11-05T16:17:15.839Z,6.60
2022-11-05T16:19:42.732Z,6.50
2022-11-05T16:22:09.800Z,6.70
2022-11-05T16:24:36.805Z,6.70
2022-11-05T16:27:04.094Z,6.80
2022-11-05T16:29:38.737Z,6.80
2022-11-05T16:32:18.592Z,6.80
2022-11-05T16:34:46.956Z,6.80
2022-11-05T16:37:15.007Z,6.80
2022-11-05T16:39:42.008Z,6.70
2022-11-05T16:42:27.414Z,6.60
2022-11-05T16:44:57.261Z,6.50
2022-11-05T16:47:26.370Z,6.40
2022-11-05T16:49:53.298Z,6.40
2022-11-05T16:52:20.618Z,6.40
2022-11-05T16:54:47.840Z,6.40
2022-11-05T16:57:28.676Z,6.40
2022-11-05T16:59:56.262Z,6.40
2022-11-05T17:02:23.244Z,6.40
2022-11-05T17:04:50.319Z,6.30
2022-11-05T17:07:17.074Z,6.20
2022-11-05T17:09:43.932Z,6.20
2022-11-05T17:12:11.480Z,6.20
2022-11-05T17:14:39.867Z,6.10
2022-11-05T17:17:07.388Z,6.20
2022-11-05T17:19:35.220Z,6.20
2022-11-05T17:22:02.585Z,6.10
2022-11-05T17:24:29.911Z,6.10
2022-11-05T17:26:56.745Z,6.10
2022-11-05T17:29:24.180Z,6.20
2022-11-05T17:31:51.654Z,6.20
2022-11-05T17:34:19.383Z,6.30
2022-11-05T17:36:46.894Z,6.40
2022-11-05T17:39:14.427Z,6.40
2022-11-05T17:41:43.542Z,6.40
2022-11-05T17:44:12.029Z,6.40
2022-11-05T17:46:39.444Z,6.40
2022-11-05T17:49:09.768Z,6.40
2022-11-05T17:51:36.752Z,6.40
2022-11-05T17:54:04.603Z,6.50
2022-11-05T17:56:34.942Z,6.50
2022-11-05T17:59:03.979Z,6.50
2022-11-05T18:01:32.761Z,6.50
2022-11-05T18:04:05.377Z,6.50
2022-11-05T18:06:38.019Z,6.40
2022-11-05T18:09:09.370Z,6.40
2022-11-05T18:11:37.382Z,6.40
2022-11-05T18:14:05.324Z,6.30
2022-11-05T18:16:33.252Z,6.20
2022-11-05T18:19:01.978Z,6.20
2022-11-05T18:21:29.376Z,6.20
2022-11-05T18:23:56.467Z,6.20
2022-11-05T18:26:23.631Z,6.20
2022-11-05T18:28:50.393Z,6.20
2022-11-05T18:31:20.782Z,6.20
2022-11-05T18:33:48.673Z,6.20
2022-11-05T18:36:23.331Z,6.30
2022-11-05T18:38:50.636Z,6.30
2022-11-05T18:41:24.789Z,6.30
2022-11-05T18:44:01.332Z,6.20
2022-11-05T18:46:56.658Z,6.20
2022-11-05T18:49:16.153Z,6.10
2022-11-05T18:51:43.171Z,6.00
2022-11-05T18:54:10.058Z,5.90
2022-11-05T18:56:37.277Z,5.90
2022-11-05T18:59:34.748Z,5.90
2022-11-05T19:01:51.705Z,5.90
2022-11-05T19:04:19.222Z,5.90
2022-11-05T19:06:46.213Z,6.00
2022-11-05T19:09:13.040Z,6.10
2022-11-05T19:11:40.833Z,6.10
2022-11-05T19:14:08.255Z,6.20
2022-11-05T19:16:35.476Z,6.20
2022-11-05T19:19:03.794Z,6.20
2022-11-05T19:21:31.055Z,6.20
2022-11-05T19:24:03.251Z,6.20
2022-11-05T19:26:30.307Z,6.10
2022-11-05T19:28:59.122Z,6.10
2022-11-05T19:31:26.720Z,6.20
2022-11-05T19:33:54.170Z,6.10
2022-11-05T19:36:22.282Z,5.90
2022-11-05T19:38:49.716Z,5.80
2022-11-05T19:41:22.020Z,5.50
2022-11-05T19:43:49.587Z,5.40
2022-11-05T19:46:18.307Z,5.40
2022-11-05T19:48:45.702Z,5.50
2022-11-05T19:51:18.865Z,5.60
2022-11-05T19:53:46.312Z,5.80
2022-11-05T19:56:20.416Z,6.00
2022-11-05T19:58:49.144Z,6.00
2022-11-05T20:01:17.795Z,6.10
2022-11-05T20:03:45.965Z,6.20
2022-11-05T20:06:14.404Z,6.20
2022-11-05T20:09:06.704Z,6.30
2022-11-05T20:11:28.491Z,6.20
2022-11-05T20:13:55.283Z,6.00
2022-11-05T20:16:24.173Z,5.90
2022-11-05T20:18:51.133Z,5.70
2022-11-05T20:21:18.322Z,5.50
2022-11-05T20:23:45.668Z,5.30
2022-11-05T20:26:13.657Z,5.30
2022-11-05T20:28:40.668Z,5.20
2022-11-05T20:31:12.003Z,5.10
2022-11-05T20:33:39.581Z,5.00
2022-11-05T20:36:11.056Z,4.90
2022-11-05T20:38:38.521Z,5.00
2022-11-05T20:41:09.546Z,5.10
2022-11-05T20:43:36.726Z,5.10
2022-11-05T20:46:07.181Z,4.90
2022-11-05T20:48:36.800Z,4.70
2022-11-05T20:51:05.931Z,4.70
2022-11-05T20:53:33.356Z,4.80
2022-11-05T20:56:05.135Z,4.90
2022-11-05T20:58:38.573Z,5.00
2022-11-05T21:01:05.916Z,5.00
2022-11-05T21:03:32.744Z,5.10
2022-11-05T21:06:04.188Z,5.20
2022-11-05T21:08:31.568Z,5.20
2022-11-05T21:10:58.813Z,5.30
2022-11-05T21:13:25.874Z,5.20
2022-11-05T21:15:54.249Z,5.20
2022-11-05T21:18:23.004Z,5.20
2022-11-05T21:20:50.005Z,5.10
2022-11-05T21:23:17.470Z,5.10
2022-11-05T21:25:45.415Z,5.20
2022-11-05T21:28:18.182Z,5.10
2022-11-05T21:30:46.712Z,5.00
2022-11-05T21:33:15.142Z,4.90
2022-11-05T21:35:47.239Z,4.90
2022-11-05T21:38:27.793Z,5.00
2022-11-05T21:40:57.639Z,5.00
2022-11-05T21:43:47.598Z,5.00
2022-11-05T21:46:20.306Z,5.10
2022-11-05T21:49:03.981Z,5.10
2022-11-05T21:52:03.813Z,5.20
2022-11-05T21:54:49.858Z,5.20
2022-11-05T21:57:55.388Z,5.20
2022-11-05T22:03:13.497Z,4.70
2022-11-05T22:05:54.522Z,4.40
2022-11-05T22:08:31.015Z,4.20
2022-11-05T22:11:00.981Z,4.10
2022-11-05T22:13:31.118Z,4.10
2022-11-05T22:16:03.865Z,4.20
2022-11-05T22:18:31.103Z,4.30
2022-11-05T22:20:58.367Z,4.50
2022-11-05T22:23:25.804Z,4.70
2022-11-05T22:25:58.892Z,4.70
2022-11-05T22:28:26.402Z,4.90
2022-11-05T22:30:53.822Z,5.00
2022-11-05T22:33:21.231Z,5.10
2022-11-05T22:35:49.087Z,5.20
2022-11-05T22:38:16.735Z,5.30
2022-11-05T22:40:44.289Z,5.30
2022-11-05T22:43:14.613Z,5.30
2022-11-05T22:45:44.161Z,5.30
2022-11-05T22:48:12.047Z,5.40
2022-11-05T22:50:46.781Z,5.50
2022-11-05T22:53:13.799Z,5.50
2022-11-05T22:55:43.313Z,5.40
2022-11-05T22:58:11.044Z,5.20
2022-11-05T23:00:38.709Z,4.90
2022-11-05T23:03:06.448Z,4.80
2022-11-05T23:05:33.916Z,4.70
2022-11-05T23:08:19.993Z,4.70
2022-11-05T23:11:06.143Z,4.60
2022-11-05T23:13:33.589Z,4.40
2022-11-05T23:16:21.355Z,4.40
2022-11-05T23:19:14.861Z,4.40
2022-11-05T23:22:01.004Z,4.40
2022-11-05T23:24:31.561Z,4.30
2022-11-05T23:27:01.535Z,4.30
2022-11-05T23:29:30.064Z,4.10
2022-11-05T23:32:16.107Z,4.10
2022-11-05T23:34:43.829Z,4.10
2022-11-05T23:37:30.278Z,4.20
2022-11-05T23:39:57.895Z,4.40
2022-11-05T23:42:43.968Z,4.50
2022-11-05T23:45:29.945Z,4.50
2022-11-05T23:48:16.321Z,4.50
2022-11-05T23:50:52.557Z,4.40
2022-11-05T23:53:20.378Z,4.50
2022-11-05T23:55:48.299Z,4.70
2022-11-05T23:58:16.225Z,4.80
